sensor_id;sensor_type;location;lat;lon;timestamp;pressure;altitude;pressure_sealevel;temperature;humidity
15229;BME280;7717;47.792;12.076;2023-02-19T00:02:03;96647.69;;;12.18;nan
15229;BME280;7717;47.792;12.076;2023-02-19T00:04:22;96645.13;;;12.24;nan
15229;BME280;7717;47.792;12.076;2023-02-19T00:06:48;96620.31;;;12.18;nan
15229;BME280;7717;47.792;12.076;2023-02-19T00:09:17;96639.97;;;12.29;nan
15229;BME280;7717;47.792;12.076;2023-02-19T00:11:44;96633.97;;;12.27;nan
15229;BME280;7717;47.792;12.076;2023-02-19T00:14:13;96635.69;;;12.28;nan
15229;BME280;7717;47.792;12.076;2023-02-19T00:16:39;96616.00;;;12.27;nan
15229;BME280;7717;47.792;12.076;2023-02-19T00:19:07;96615.13;;;12.31;nan
15229;BME280;7717;47.792;12.076;2023-02-19T00:21:35;96624.63;;;12.15;nan
15229;BME280;7717;47.792;12.076;2023-02-19T00:24:03;96620.34;;;12.14;nan
15229;BME280;7717;47.792;12.076;2023-02-19T00:26:29;96624.63;;;12.10;nan
15229;BME280;7717;47.792;12.076;2023-02-19T00:28:55;96634.91;;;12.09;nan
15229;BME280;7717;47.792;12.076;2023-02-19T00:31:29;96619.50;;;12.10;nan
15229;BME280;7717;47.792;12.076;2023-02-19T00:33:57;96625.47;;;12.15;nan
15229;BME280;7717;47.792;12.076;2023-02-19T00:36:24;96622.03;;;12.22;nan
15229;BME280;7717;47.792;12.076;2023-02-19T00:38:50;96608.31;;;12.22;nan
15229;BME280;7717;47.792;12.076;2023-02-19T00:41:17;96595.56;;;12.11;nan
15229;BME280;7717;47.792;12.076;2023-02-19T00:46:19;96602.34;;;12.21;nan
15229;BME280;7717;47.792;12.076;2023-02-19T00:48:45;96588.72;;;12.10;nan
15229;BME280;7717;47.792;12.076;2023-02-19T00:51:11;96611.78;;;12.15;nan
15229;BME280;7717;47.792;12.076;2023-02-19T00:53:36;96609.22;;;12.13;nan
15229;BME280;7717;47.792;12.076;2023-02-19T00:56:03;96597.25;;;12.09;nan
15229;BME280;7717;47.792;12.076;2023-02-19T00:58:28;96602.34;;;12.21;nan
15229;BME280;7717;47.792;12.076;2023-02-19T01:00:54;96595.59;;;12.02;nan
15229;BME280;7717;47.792;12.076;2023-02-19T01:03:19;96597.28;;;12.01;nan
15229;BME280;7717;47.792;12.076;2023-02-19T01:05:47;96597.28;;;11.87;nan
15229;BME280;7717;47.792;12.076;2023-02-19T01:08:13;96598.19;;;11.85;nan
15229;BME280;7717;47.792;12.076;2023-02-19T01:10:38;96605.84;;;11.91;nan
15229;BME280;7717;47.792;12.076;2023-02-19T01:13:04;96567.41;;;11.93;nan
15229;BME280;7717;47.792;12.076;2023-02-19T01:15:31;96587.81;;;12.17;nan
15229;BME280;7717;47.792;12.076;2023-02-19T01:17:56;96589.53;;;12.15;nan
15229;BME280;7717;47.792;12.076;2023-02-19T01:20:22;96580.09;;;12.20;nan
15229;BME280;7717;47.792;12.076;2023-02-19T01:22:47;96581.00;;;12.15;nan
15229;BME280;7717;47.792;12.076;2023-02-19T01:25:12;96566.47;;;12.12;nan
15229;BME280;7717;47.792;12.076;2023-02-19T01:27:38;96574.97;;;12.17;nan
15229;BME280;7717;47.792;12.076;2023-02-19T01:30:03;96559.66;;;12.08;nan
15229;BME280;7717;47.792;12.076;2023-02-19T01:32:29;96546.75;;;12.19;nan
15229;BME280;7717;47.792;12.076;2023-02-19T01:34:54;96545.13;;;12.01;nan
15229;BME280;7717;47.792;12.076;2023-02-19T01:37:20;96553.66;;;12.06;nan
15229;BME280;7717;47.792;12.076;2023-02-19T01:39:46;96558.75;;;12.15;nan
15229;BME280;7717;47.792;12.076;2023-02-19T01:42:15;96547.63;;;12.16;nan
15229;BME280;7717;47.792;12.076;2023-02-19T01:47:17;96541.56;;;12.25;nan
15229;BME280;7717;47.792;12.076;2023-02-19T01:50:01;96533.09;;;12.12;nan
15229;BME280;7717;47.792;12.076;2023-02-19T01:52:31;96537.34;;;12.22;nan
15229;BME280;7717;47.792;12.076;2023-02-19T01:54:57;96546.72;;;12.20;nan
15229;BME280;7717;47.792;12.076;2023-02-19T01:57:27;96541.69;;;12.08;nan
15229;BME280;7717;47.792;12.076;2023-02-19T01:59:57;96543.31;;;12.20;nan
15229;BME280;7717;47.792;12.076;2023-02-19T02:02:25;96557.09;;;12.06;nan
15229;BME280;7717;47.792;12.076;2023-02-19T02:04:53;96547.66;;;12.10;nan
15229;BME280;7717;47.792;12.076;2023-02-19T02:07:19;96545.97;;;12.06;nan
15229;BME280;7717;47.792;12.076;2023-02-19T02:10:03;96563.03;;;12.16;nan
15229;BME280;7717;47.792;12.076;2023-02-19T02:12:44;96520.28;;;12.09;nan
15229;BME280;7717;47.792;12.076;2023-02-19T02:15:10;96521.97;;;12.13;nan
15229;BME280;7717;47.792;12.076;2023-02-19T02:18:04;96515.16;;;12.11;nan
15229;BME280;7717;47.792;12.076;2023-02-19T02:23:28;96530.50;;;12.17;nan
15229;BME280;7717;47.792;12.076;2023-02-19T02:26:11;96506.53;;;12.26;nan
15229;BME280;7717;47.792;12.076;2023-02-19T02:31:33;96527.09;;;12.15;nan
15229;BME280;7717;47.792;12.076;2023-02-19T02:34:18;96523.59;;;12.27;nan
15229;BME280;7717;47.792;12.076;2023-02-19T02:36:49;96516.81;;;12.18;nan
15229;BME280;7717;47.792;12.076;2023-02-19T02:39:21;96495.50;;;12.08;nan
15229;BME280;7717;47.792;12.076;2023-02-19T02:41:56;96522.81;;;12.18;nan
15229;BME280;7717;47.792;12.076;2023-02-19T02:44:41;96522.81;;;12.17;nan
15229;BME280;7717;47.792;12.076;2023-02-19T02:47:07;96515.09;;;12.18;nan
15229;BME280;7717;47.792;12.076;2023-02-19T02:49:55;96490.44;;;11.97;nan
15229;BME280;7717;47.792;12.076;2023-02-19T02:52:32;96514.34;;;12.02;nan
15229;BME280;7717;47.792;12.076;2023-02-19T02:55:19;96486.09;;;12.04;nan
15229;BME280;7717;47.792;12.076;2023-02-19T02:57:45;96496.53;;;11.62;nan
15229;BME280;7717;47.792;12.076;2023-02-19T03:00:11;96500.78;;;11.63;nan
15229;BME280;7717;47.792;12.076;2023-02-19T03:02:39;96502.59;;;11.40;nan
15229;BME280;7717;47.792;12.076;2023-02-19T03:05:17;96497.44;;;11.43;nan
15229;BME280;7717;47.792;12.076;2023-02-19T03:08:13;96476.03;;;11.51;nan
15229;BME280;7717;47.792;12.076;2023-02-19T03:11:18;96488.84;;;11.59;nan
15229;BME280;7717;47.792;12.076;2023-02-19T03:14:03;96482.09;;;11.41;nan
15229;BME280;7717;47.792;12.076;2023-02-19T03:16:50;96483.75;;;11.48;nan
15229;BME280;7717;47.792;12.076;2023-02-19T03:19:42;96473.53;;;11.34;nan
15229;BME280;7717;47.792;12.076;2023-02-19T03:22:17;96493.22;;;11.15;nan
15229;BME280;7717;47.792;12.076;2023-02-19T03:24:48;96427.53;;;11.07;nan
15229;BME280;7717;47.792;12.076;2023-02-19T03:27:35;96503.47;;;11.17;nan
15229;BME280;7717;47.792;12.076;2023-02-19T03:30:06;96437.66;;;11.38;nan
15229;BME280;7717;47.792;12.076;2023-02-19T03:32:38;96459.84;;;11.48;nan
15229;BME280;7717;47.792;12.076;2023-02-19T03:35:16;96453.84;;;11.57;nan
15229;BME280;7717;47.792;12.076;2023-02-19T03:40:13;96459.00;;;11.47;nan
15229;BME280;7717;47.792;12.076;2023-02-19T03:43:00;96469.19;;;11.60;nan
15229;BME280;7717;47.792;12.076;2023-02-19T03:45:37;96455.53;;;11.50;nan
15229;BME280;7717;47.792;12.076;2023-02-19T03:48:19;96472.72;;;11.23;nan
15229;BME280;7717;47.792;12.076;2023-02-19T03:50:54;96471.00;;;11.30;nan
15229;BME280;7717;47.792;12.076;2023-02-19T03:53:30;96474.38;;;11.41;nan
15229;BME280;7717;47.792;12.076;2023-02-19T03:56:10;96473.59;;;11.16;nan
15229;BME280;7717;47.792;12.076;2023-02-19T03:58:55;96483.75;;;11.41;nan
15229;BME280;7717;47.792;12.076;2023-02-19T04:04:21;96471.81;;;11.41;nan
15229;BME280;7717;47.792;12.076;2023-02-19T04:06:54;96482.06;;;11.49;nan
15229;BME280;7717;47.792;12.076;2023-02-19T04:09:21;96488.09;;;11.29;nan
15229;BME280;7717;47.792;12.076;2023-02-19T04:11:49;96504.28;;;11.41;nan
15229;BME280;7717;47.792;12.076;2023-02-19T04:14:19;96503.44;;;11.35;nan
15229;BME280;7717;47.792;12.076;2023-02-19T04:16:52;96531.63;;;11.32;nan
15229;BME280;7717;47.792;12.076;2023-02-19T04:19:22;96482.94;;;11.31;nan
15229;BME280;7717;47.792;12.076;2023-02-19T04:21:49;96506.03;;;11.29;nan
15229;BME280;7717;47.792;12.076;2023-02-19T04:24:21;96512.84;;;11.30;nan
15229;BME280;7717;47.792;12.076;2023-02-19T04:26:48;96496.66;;;11.24;nan
15229;BME280;7717;47.792;12.076;2023-02-19T04:29:14;96528.28;;;10.99;nan
15229;BME280;7717;47.792;12.076;2023-02-19T04:31:39;96521.41;;;11.23;nan
15229;BME280;7717;47.792;12.076;2023-02-19T04:34:05;96522.28;;;11.27;nan
15229;BME280;7717;47.792;12.076;2023-02-19T04:36:31;96531.66;;;11.15;nan
15229;BME280;7717;47.792;12.076;2023-02-19T04:38:56;96529.97;;;11.05;nan
15229;BME280;7717;47.792;12.076;2023-02-19T04:41:22;96514.63;;;10.99;nan
15229;BME280;7717;47.792;12.076;2023-02-19T04:43:47;96506.09;;;10.69;nan
15229;BME280;7717;47.792;12.076;2023-02-19T04:46:12;96526.53;;;10.40;nan
15229;BME280;7717;47.792;12.076;2023-02-19T04:48:38;96527.38;;;10.40;nan
15229;BME280;7717;47.792;12.076;2023-02-19T04:51:07;96524.81;;;10.40;nan
15229;BME280;7717;47.792;12.076;2023-02-19T04:53:34;96535.06;;;10.48;nan
15229;BME280;7717;47.792;12.076;2023-02-19T04:56:08;96543.63;;;10.50;nan
15229;BME280;7717;47.792;12.076;2023-02-19T04:58:33;96527.38;;;10.40;nan
15229;BME280;7717;47.792;12.076;2023-02-19T05:00:59;96526.47;;;10.24;nan
15229;BME280;7717;47.792;12.076;2023-02-19T05:03:25;96516.31;;;10.41;nan
15229;BME280;7717;47.792;12.076;2023-02-19T05:05:50;96508.63;;;10.44;nan
15229;BME280;7717;47.792;12.076;2023-02-19T05:08:15;96494.94;;;10.30;nan
15229;BME280;7717;47.792;12.076;2023-02-19T05:10:41;96499.19;;;10.13;nan
15229;BME280;7717;47.792;12.076;2023-02-19T05:13:06;96517.91;;;10.08;nan
15229;BME280;7717;47.792;12.076;2023-02-19T05:15:31;96523.00;;;9.98;nan
15229;BME280;7717;47.792;12.076;2023-02-19T05:17:57;96541.66;;;9.75;nan
15229;BME280;7717;47.792;12.076;2023-02-19T05:20:23;96537.34;;;9.60;nan
15229;BME280;7717;47.792;12.076;2023-02-19T05:22:48;96533.06;;;9.59;nan
15229;BME280;7717;47.792;12.076;2023-02-19T05:25:13;96529.56;;;9.40;nan
15229;BME280;7717;47.792;12.076;2023-02-19T05:27:39;96532.09;;;9.34;nan
15229;BME280;7717;47.792;12.076;2023-02-19T05:30:04;96537.16;;;9.31;nan
15229;BME280;7717;47.792;12.076;2023-02-19T05:32:30;96554.16;;;9.21;nan
15229;BME280;7717;47.792;12.076;2023-02-19T05:34:55;96525.31;;;9.45;nan
15229;BME280;7717;47.792;12.076;2023-02-19T05:37:20;96533.81;;;9.35;nan
15229;BME280;7717;47.792;12.076;2023-02-19T05:39:47;96543.16;;;9.36;nan
15229;BME280;7717;47.792;12.076;2023-02-19T05:42:13;96541.41;;;9.26;nan
15229;BME280;7717;47.792;12.076;2023-02-19T05:44:42;96526.06;;;9.23;nan
15229;BME280;7717;47.792;12.076;2023-02-19T05:47:07;96538.88;;;9.27;nan
15229;BME280;7717;47.792;12.076;2023-02-19T05:49:33;96543.13;;;9.25;nan
15229;BME280;7717;47.792;12.076;2023-02-19T05:51:58;96543.91;;;9.18;nan
15229;BME280;7717;47.792;12.076;2023-02-19T05:54:23;96531.91;;;9.08;nan
15229;BME280;7717;47.792;12.076;2023-02-19T05:56:49;96548.19;;;9.19;nan
15229;BME280;7717;47.792;12.076;2023-02-19T05:59:17;96547.34;;;9.26;nan
15229;BME280;7717;47.792;12.076;2023-02-19T06:01:43;96560.09;;;9.22;nan
15229;BME280;7717;47.792;12.076;2023-02-19T06:04:10;96549.81;;;9.14;nan
15229;BME280;7717;47.792;12.076;2023-02-19T06:06:36;96567.72;;;9.17;nan
15229;BME280;7717;47.792;12.076;2023-02-19T06:09:03;96566.91;;;9.18;nan
15229;BME280;7717;47.792;12.076;2023-02-19T06:11:29;96573.75;;;9.25;nan
15229;BME280;7717;47.792;12.076;2023-02-19T06:13:54;96565.97;;;9.07;nan
15229;BME280;7717;47.792;12.076;2023-02-19T06:16:20;96550.81;;;9.36;nan
15229;BME280;7717;47.792;12.076;2023-02-19T06:18:46;96551.69;;;9.35;nan
15229;BME280;7717;47.792;12.076;2023-02-19T06:21:12;96560.97;;;9.24;nan
15229;BME280;7717;47.792;12.076;2023-02-19T06:23:38;96560.94;;;9.17;nan
15229;BME280;7717;47.792;12.076;2023-02-19T06:26:15;96560.06;;;9.17;nan
15229;BME280;7717;47.792;12.076;2023-02-19T06:28:42;96540.50;;;9.17;nan
15229;BME280;7717;47.792;12.076;2023-02-19T06:31:09;96554.06;;;9.12;nan
15229;BME280;7717;47.792;12.076;2023-02-19T06:33:35;96550.81;;;9.28;nan
15229;BME280;7717;47.792;12.076;2023-02-19T06:36:03;96551.59;;;9.23;nan
15229;BME280;7717;47.792;12.076;2023-02-19T06:38:29;96548.25;;;9.31;nan
15229;BME280;7717;47.792;12.076;2023-02-19T06:40:54;96539.91;;;9.62;nan
15229;BME280;7717;47.792;12.076;2023-02-19T06:43:23;96556.03;;;9.51;nan
15229;BME280;7717;47.792;12.076;2023-02-19T06:45:49;96563.81;;;9.75;nan
15229;BME280;7717;47.792;12.076;2023-02-19T06:48:14;96569.00;;;9.91;nan
15229;BME280;7717;47.792;12.076;2023-02-19T06:50:39;96569.78;;;9.77;nan
15229;BME280;7717;47.792;12.076;2023-02-19T06:53:05;96574.06;;;9.78;nan
15229;BME280;7717;47.792;12.076;2023-02-19T06:55:30;96586.09;;;9.97;nan
15229;BME280;7717;47.792;12.076;2023-02-19T06:57:56;96592.94;;;10.12;nan
15229;BME280;7717;47.792;12.076;2023-02-19T07:00:21;96577.59;;;10.12;nan
15229;BME280;7717;47.792;12.076;2023-02-19T07:02:47;96601.41;;;9.94;nan
15229;BME280;7717;47.792;12.076;2023-02-19T07:05:12;96588.66;;;9.97;nan
15229;BME280;7717;47.792;12.076;2023-02-19T07:07:37;96596.28;;;9.91;nan
15229;BME280;7717;47.792;12.076;2023-02-19T07:10:03;96598.91;;;10.05;nan
15229;BME280;7717;47.792;12.076;2023-02-19T07:12:29;96608.22;;;9.95;nan
15229;BME280;7717;47.792;12.076;2023-02-19T07:14:54;96610.78;;;9.95;nan
15229;BME280;7717;47.792;12.076;2023-02-19T07:17:22;96612.50;;;9.99;nan
15229;BME280;7717;47.792;12.076;2023-02-19T07:19:47;96615.03;;;9.90;nan
15229;BME280;7717;47.792;12.076;2023-02-19T07:22:12;96606.53;;;9.97;nan
15229;BME280;7717;47.792;12.076;2023-02-19T07:24:37;96623.66;;;10.17;nan
15229;BME280;7717;47.792;12.076;2023-02-19T07:27:03;96633.13;;;10.32;nan
15229;BME280;7717;47.792;12.076;2023-02-19T07:29:28;96645.81;;;10.08;nan
15229;BME280;7717;47.792;12.076;2023-02-19T07:31:53;96619.41;;;10.25;nan
15229;BME280;7717;47.792;12.076;2023-02-19T07:34:19;96627.06;;;10.13;nan
15229;BME280;7717;47.792;12.076;2023-02-19T07:36:44;96622.84;;;10.24;nan
15229;BME280;7717;47.792;12.076;2023-02-19T07:39:12;96646.72;;;10.24;nan
15229;BME280;7717;47.792;12.076;2023-02-19T07:41:37;96624.44;;;9.97;nan
15229;BME280;7717;47.792;12.076;2023-02-19T07:44:03;96625.41;;;10.24;nan
15229;BME280;7717;47.792;12.076;2023-02-19T07:46:28;96630.47;;;10.15;nan
15229;BME280;7717;47.792;12.076;2023-02-19T07:48:54;96633.09;;;10.25;nan
15229;BME280;7717;47.792;12.076;2023-02-19T07:51:20;96638.25;;;10.33;nan
15229;BME280;7717;47.792;12.076;2023-02-19T07:53:46;96652.78;;;10.47;nan
15229;BME280;7717;47.792;12.076;2023-02-19T07:56:12;96647.56;;;10.26;nan
15229;BME280;7717;47.792;12.076;2023-02-19T07:58:38;96653.63;;;10.35;nan
15229;BME280;7717;47.792;12.076;2023-02-19T08:01:13;96661.22;;;10.22;nan
15229;BME280;7717;47.792;12.076;2023-02-19T08:03:39;96653.56;;;10.25;nan
15229;BME280;7717;47.792;12.076;2023-02-19T08:06:05;96653.66;;;10.46;nan
15229;BME280;7717;47.792;12.076;2023-02-19T08:08:30;96675.88;;;10.56;nan
15229;BME280;7717;47.792;12.076;2023-02-19T08:11:01;96675.88;;;10.59;nan
15229;BME280;7717;47.792;12.076;2023-02-19T08:13:47;96675.88;;;10.62;nan
15229;BME280;7717;47.792;12.076;2023-02-19T08:16:14;96678.44;;;10.62;nan
15229;BME280;7717;47.792;12.076;2023-02-19T08:18:44;96683.59;;;10.70;nan
15229;BME280;7717;47.792;12.076;2023-02-19T08:21:11;96672.47;;;10.60;nan
15229;BME280;7717;47.792;12.076;2023-02-19T08:23:36;96681.03;;;10.73;nan
15229;BME280;7717;47.792;12.076;2023-02-19T08:26:02;96692.13;;;10.70;nan
15229;BME280;7717;47.792;12.076;2023-02-19T08:28:28;96687.03;;;10.89;nan
15229;BME280;7717;47.792;12.076;2023-02-19T08:31:02;96675.09;;;10.83;nan
15229;BME280;7717;47.792;12.076;2023-02-19T08:33:28;96684.50;;;10.98;nan
15229;BME280;7717;47.792;12.076;2023-02-19T08:35:55;96687.09;;;11.07;nan
15229;BME280;7717;47.792;12.076;2023-02-19T08:38:20;96678.56;;;11.07;nan
15229;BME280;7717;47.792;12.076;2023-02-19T08:40:46;96672.56;;;11.19;nan
15229;BME280;7717;47.792;12.076;2023-02-19T08:43:14;96676.88;;;11.40;nan
15229;BME280;7717;47.792;12.076;2023-02-19T08:45:41;96687.97;;;11.59;nan
15229;BME280;7717;47.792;12.076;2023-02-19T08:48:07;96670.88;;;11.55;nan
15229;BME280;7717;47.792;12.076;2023-02-19T08:50:33;96667.47;;;11.63;nan
15229;BME280;7717;47.792;12.076;2023-02-19T08:52:59;96660.56;;;12.07;nan
15229;BME280;7717;47.792;12.076;2023-02-19T08:55:25;96686.19;;;12.18;nan
15229;BME280;7717;47.792;12.076;2023-02-19T08:57:51;96670.69;;;12.53;nan
15229;BME280;7717;47.792;12.076;2023-02-19T09:00:16;96670.84;;;12.02;nan
15229;BME280;7717;47.792;12.076;2023-02-19T09:02:42;96667.94;;;12.79;nan
15229;BME280;7717;47.792;12.076;2023-02-19T09:05:07;96668.19;;;12.30;nan
15229;BME280;7717;47.792;12.076;2023-02-19T09:07:33;96673.34;;;12.26;nan
15229;BME280;7717;47.792;12.076;2023-02-19T09:09:59;96688.78;;;12.15;nan
15229;BME280;7717;47.792;12.076;2023-02-19T09:12:25;96678.50;;;12.15;nan
15229;BME280;7717;47.792;12.076;2023-02-19T09:14:51;96695.66;;;12.03;nan
15229;BME280;7717;47.792;12.076;2023-02-19T09:17:17;96691.34;;;12.13;nan
15229;BME280;7717;47.792;12.076;2023-02-19T09:19:42;96688.75;;;12.24;nan
15229;BME280;7717;47.792;12.076;2023-02-19T09:22:08;96709.31;;;12.10;nan
15229;BME280;7717;47.792;12.076;2023-02-19T09:24:33;96692.16;;;12.29;nan
15229;BME280;7717;47.792;12.076;2023-02-19T09:26:59;96661.44;;;11.92;nan
15229;BME280;7717;47.792;12.076;2023-02-19T09:29:25;96706.75;;;12.10;nan
15229;BME280;7717;47.792;12.076;2023-02-19T09:31:57;96698.13;;;12.27;nan
15229;BME280;7717;47.792;12.076;2023-02-19T09:34:24;96701.44;;;12.56;nan
15229;BME280;7717;47.792;12.076;2023-02-19T09:36:50;96688.53;;;12.75;nan
15229;BME280;7717;47.792;12.076;2023-02-19T09:39:16;96678.28;;;12.64;nan
15229;BME280;7717;47.792;12.076;2023-02-19T09:41:50;96651.47;;;13.13;nan
15229;BME280;7717;47.792;12.076;2023-02-19T09:44:28;96588.38;;;15.58;nan
15229;BME280;7717;47.792;12.076;2023-02-19T09:46:55;96593.22;;;16.64;nan
15229;BME280;7717;47.792;12.076;2023-02-19T09:49:33;96520.59;;;17.45;nan
15229;BME280;7717;47.792;12.076;2023-02-19T09:52:07;96666.88;;;14.87;nan
15229;BME280;7717;47.792;12.076;2023-02-19T09:54:37;96526.47;;;17.50;nan
15229;BME280;7717;47.792;12.076;2023-02-19T09:57:04;96553.75;;;16.95;nan
15229;BME280;7717;47.792;12.076;2023-02-19T09:59:40;96533.56;;;18.08;nan
15229;BME280;7717;47.792;12.076;2023-02-19T10:02:17;96574.13;;;18.09;nan
15229;BME280;7717;47.792;12.076;2023-02-19T10:04:44;96556.75;;;17.48;nan
15229;BME280;7717;47.792;12.076;2023-02-19T10:07:21;96558.22;;;17.58;nan
15229;BME280;7717;47.792;12.076;2023-02-19T10:09:52;96540.72;;;18.29;nan
15229;BME280;7717;47.792;12.076;2023-02-19T10:12:30;96519.91;;;18.89;nan
15229;BME280;7717;47.792;12.076;2023-02-19T10:15:08;96536.06;;;18.11;nan
15229;BME280;7717;47.792;12.076;2023-02-19T10:17:36;96601.03;;;18.34;nan
15229;BME280;7717;47.792;12.076;2023-02-19T10:20:02;96602.84;;;16.57;nan
15229;BME280;7717;47.792;12.076;2023-02-19T10:22:29;96606.94;;;18.10;nan
15229;BME280;7717;47.792;12.076;2023-02-19T10:24:56;96630.16;;;17.08;nan
15229;BME280;7717;47.792;12.076;2023-02-19T10:27:25;96641.28;;;16.72;nan
15229;BME280;7717;47.792;12.076;2023-02-19T10:29:51;96625.69;;;15.91;nan
15229;BME280;7717;47.792;12.076;2023-02-19T10:32:22;96691.38;;;15.16;nan
15229;BME280;7717;47.792;12.076;2023-02-19T10:35:10;96702.72;;;15.05;nan
15229;BME280;7717;47.792;12.076;2023-02-19T10:37:45;96758.94;;;14.77;nan
15229;BME280;7717;47.792;12.076;2023-02-19T10:40:16;96760.44;;;12.79;nan
15229;BME280;7717;47.792;12.076;2023-02-19T10:42:47;96772.56;;;12.30;nan
15229;BME280;7717;47.792;12.076;2023-02-19T10:45:20;96776.84;;;11.81;nan
15229;BME280;7717;47.792;12.076;2023-02-19T10:47:46;96779.44;;;11.60;nan
15229;BME280;7717;47.792;12.076;2023-02-19T10:50:22;96774.94;;;10.77;nan
15229;BME280;7717;47.792;12.076;2023-02-19T10:52:52;96781.59;;;10.42;nan
15229;BME280;7717;47.792;12.076;2023-02-19T10:57:45;96797.28;;;9.75;nan
15229;BME280;7717;47.792;12.076;2023-02-19T11:02:39;96792.78;;;9.46;nan
15229;BME280;7717;47.792;12.076;2023-02-19T11:07:48;96811.56;;;9.53;nan
15229;BME280;7717;47.792;12.076;2023-02-19T11:10:35;96812.88;;;9.14;nan
15229;BME280;7717;47.792;12.076;2023-02-19T11:13:04;96820.63;;;9.23;nan
15229;BME280;7717;47.792;12.076;2023-02-19T11:15:34;96812.28;;;9.38;nan
15229;BME280;7717;47.792;12.076;2023-02-19T11:20:30;96801.56;;;8.92;nan
15229;BME280;7717;47.792;12.076;2023-02-19T11:22:59;96827.19;;;8.99;nan
15229;BME280;7717;47.792;12.076;2023-02-19T11:25:26;96810.41;;;9.22;nan
15229;BME280;7717;47.792;12.076;2023-02-19T11:28:20;96785.56;;;9.05;nan
15229;BME280;7717;47.792;12.076;2023-02-19T11:30:47;96811.38;;;9.34;nan
15229;BME280;7717;47.792;12.076;2023-02-19T11:33:19;96808.44;;;9.82;nan
15229;BME280;7717;47.792;12.076;2023-02-19T11:35:50;96826.88;;;9.50;nan
15229;BME280;7717;47.792;12.076;2023-02-19T11:38:17;96812.53;;;9.61;nan
15229;BME280;7717;47.792;12.076;2023-02-19T11:53:59;96808.81;;;9.30;nan
15229;BME280;7717;47.792;12.076;2023-02-19T11:56:33;96808.72;;;9.22;nan
15229;BME280;7717;47.792;12.076;2023-02-19T11:59:03;96818.16;;;9.29;nan
15229;BME280;7717;47.792;12.076;2023-02-19T12:04:47;96807.66;;;9.05;nan
15229;BME280;7717;47.792;12.076;2023-02-19T12:10:31;96814.38;;;8.96;nan
15229;BME280;7717;47.792;12.076;2023-02-19T12:13:09;96803.34;;;8.99;nan
15229;BME280;7717;47.792;12.076;2023-02-19T12:15:47;96816.25;;;9.10;nan
15229;BME280;7717;47.792;12.076;2023-02-19T12:26:26;96816.75;;;9.59;nan
15229;BME280;7717;47.792;12.076;2023-02-19T12:31:55;96798.31;;;9.96;nan
15229;BME280;7717;47.792;12.076;2023-02-19T12:37:18;96807.59;;;9.84;nan
15229;BME280;7717;47.792;12.076;2023-02-19T12:42:51;96803.25;;;9.72;nan
15229;BME280;7717;47.792;12.076;2023-02-19T12:45:30;96800.44;;;9.48;nan
15229;BME280;7717;47.792;12.076;2023-02-19T12:51:09;96827.53;;;9.30;nan
15229;BME280;7717;47.792;12.076;2023-02-19T12:53:58;96832.06;;;9.58;nan
15229;BME280;7717;47.792;12.076;2023-02-19T12:56:28;96835.97;;;9.25;nan
15229;BME280;7717;47.792;12.076;2023-02-19T12:59:02;96845.31;;;9.21;nan
15229;BME280;7717;47.792;12.076;2023-02-19T13:01:38;96835.13;;;9.23;nan
15229;BME280;7717;47.792;12.076;2023-02-19T13:07:10;96851.34;;;9.29;nan
15229;BME280;7717;47.792;12.076;2023-02-19T13:12:23;96825.28;;;8.83;nan
15229;BME280;7717;47.792;12.076;2023-02-19T13:14:55;96845.00;;;8.96;nan
15229;BME280;7717;47.792;12.076;2023-02-19T13:17:49;96854.34;;;8.93;nan
15229;BME280;7717;47.792;12.076;2023-02-19T13:20:24;96865.06;;;8.69;nan
15229;BME280;7717;47.792;12.076;2023-02-19T13:23:00;96853.78;;;8.53;nan
15229;BME280;7717;47.792;12.076;2023-02-19T13:31:25;96857.41;;;8.69;nan
15229;BME280;7717;47.792;12.076;2023-02-19T13:36:29;96840.69;;;8.89;nan
15229;BME280;7717;47.792;12.076;2023-02-19T13:38:56;96848.94;;;8.70;nan
15229;BME280;7717;47.792;12.076;2023-02-19T13:43:57;96842.25;;;8.81;nan
15229;BME280;7717;47.792;12.076;2023-02-19T13:46:24;96829.03;;;9.11;nan
15229;BME280;7717;47.792;12.076;2023-02-19T13:51:58;96831.69;;;9.19;nan
15229;BME280;7717;47.792;12.076;2023-02-19T13:54:26;96818.91;;;9.19;nan
15229;BME280;7717;47.792;12.076;2023-02-19T13:59:44;96827.94;;;8.94;nan
15229;BME280;7717;47.792;12.076;2023-02-19T14:14:43;96838.16;;;8.92;nan
15229;BME280;7717;47.792;12.076;2023-02-19T14:28:19;96818.31;;;9.45;nan
15229;BME280;7717;47.792;12.076;2023-02-19T14:30:52;96820.06;;;9.49;nan
15229;BME280;7717;47.792;12.076;2023-02-19T14:33:25;96833.06;;;9.75;nan
15229;BME280;7717;47.792;12.076;2023-02-19T14:36:16;96835.78;;;9.92;nan
15229;BME280;7717;47.792;12.076;2023-02-19T14:38:44;96853.66;;;9.89;nan
15229;BME280;7717;47.792;12.076;2023-02-19T14:41:12;96859.19;;;9.45;nan
15229;BME280;7717;47.792;12.076;2023-02-19T14:43:39;96859.28;;;9.54;nan
15229;BME280;7717;47.792;12.076;2023-02-19T14:46:14;96864.34;;;9.49;nan
15229;BME280;7717;47.792;12.076;2023-02-19T14:48:45;96857.69;;;9.65;nan
15229;BME280;7717;47.792;12.076;2023-02-19T14:51:29;96862.69;;;9.54;nan
15229;BME280;7717;47.792;12.076;2023-02-19T14:53:56;96872.75;;;9.41;nan
15229;BME280;7717;47.792;12.076;2023-02-19T14:56:30;96858.13;;;9.24;nan
15229;BME280;7717;47.792;12.076;2023-02-19T15:01:36;96865.81;;;9.27;nan
15229;BME280;7717;47.792;12.076;2023-02-19T15:04:02;96864.09;;;9.26;nan
15229;BME280;7717;47.792;12.076;2023-02-19T15:06:28;96864.84;;;9.16;nan
15229;BME280;7717;47.792;12.076;2023-02-19T15:09:02;96872.44;;;9.11;nan
15229;BME280;7717;47.792;12.076;2023-02-19T15:11:30;96858.09;;;9.21;nan
15229;BME280;7717;47.792;12.076;2023-02-19T15:14:01;96866.56;;;9.18;nan
15229;BME280;7717;47.792;12.076;2023-02-19T15:16:29;96881.06;;;9.19;nan
15229;BME280;7717;47.792;12.076;2023-02-19T15:18:56;96872.38;;;9.07;nan
15229;BME280;7717;47.792;12.076;2023-02-19T15:21:30;96878.28;;;9.03;nan
15229;BME280;7717;47.792;12.076;2023-02-19T15:23:58;96881.03;;;9.18;nan
15229;BME280;7717;47.792;12.076;2023-02-19T15:26:37;96888.63;;;9.13;nan
15229;BME280;7717;47.792;12.076;2023-02-19T15:29:09;96893.50;;;8.95;nan
15229;BME280;7717;47.792;12.076;2023-02-19T15:31:35;96900.28;;;8.93;nan
15229;BME280;7717;47.792;12.076;2023-02-19T15:34:01;96912.16;;;8.88;nan
15229;BME280;7717;47.792;12.076;2023-02-19T15:36:32;96920.34;;;8.67;nan